Time;durP1;ratioP1;P1;durP2;ratioP2;P2;SDS_P1;SDS_P2;PMS_P1;PMS_P2;Temp;Humidity;BMP_temperature;BMP_pressure;BME280_temperature;BME280_humidity;BME280_pressure;Samples;Min_cycle;Max_cycle;Signal;HPM_P1;HPM_P2
2023/01/31 00:00:08;;;;;;;;;;;6.00;99.90;;;;;;5053628;28;19920;-80
2023/01/31 00:02:34;;;;;;;;;;;6.00;99.90;;;;;;5053245;28;19916;-80
2023/01/31 00:04:59;;;;;;;;;;;6.00;99.90;;;;;;5053593;28;20362;-80
2023/01/31 00:07:25;;;;;;;;;;;6.10;99.90;;;;;;5053395;28;19916;-79
2023/01/31 00:09:50;;;;;;;;;;;6.10;99.90;;;;;;5053520;28;19909;-79
2023/01/31 00:12:16;;;;;;;;;;;6.10;99.90;;;;;;5053021;28;19909;-79
2023/01/31 00:14:41;;;;;;;;;;;6.10;99.90;;;;;;5053104;28;19909;-79
2023/01/31 00:17:07;;;;;;;;;;;6.00;99.90;;;;;;5076394;22;19932;-83
2023/01/31 00:19:32;;;;;;;;;;;6.00;99.90;;;;;;5039204;28;19959;-84
2023/01/31 00:21:58;;;;;;;;;;;6.00;99.90;;;;;;5058091;28;20319;-83
2023/01/31 00:24:23;;;;;;;;;;;6.00;99.90;;;;;;5058148;28;19919;-83
2023/01/31 00:26:55;;;;;;;;;;;6.10;99.90;;;;;;5038155;28;19956;-82
2023/01/31 00:29:21;;;;;;;;;;;6.00;99.90;;;;;;5039747;28;19908;-83
2023/01/31 00:31:47;;;;;;;;;;;6.00;99.90;;;;;;5039851;28;20282;-83
2023/01/31 00:34:12;;;;;;;;;;;6.10;99.90;;;;;;5039933;28;19909;-83
2023/01/31 00:36:38;;;;;;;;;;;6.10;99.90;;;;;;5039682;28;19919;-83
2023/01/31 00:39:04;;;;;;;;;;;6.00;99.90;;;;;;5039368;28;20377;-83
2023/01/31 00:41:30;;;;;;;;;;;5.90;99.90;;;;;;5038833;28;19936;-84
2023/01/31 00:43:55;;;;;;;;;;;5.80;99.90;;;;;;5039511;28;19921;-83
2023/01/31 00:46:21;;;;;;;;;;;5.80;99.90;;;;;;5039220;28;19983;-83
2023/01/31 00:48:47;;;;;;;;;;;5.70;99.90;;;;;;5057273;28;20495;-83
2023/01/31 00:51:12;;;;;;;;;;;5.70;99.90;;;;;;5057377;28;19916;-82
2023/01/31 00:53:38;;;;;;;;;;;5.50;99.90;;;;;;5039137;28;19928;-83
2023/01/31 00:56:08;;;;;;;;;;;5.40;99.90;;;;;;5035612;28;19916;-83
2023/01/31 00:58:34;;;;;;;;;;;5.40;99.90;;;;;;5038780;28;19944;-82
2023/01/31 01:01:29;;;;;;;;;;;5.30;99.90;;;;;;5039361;28;19931;-83
2023/01/31 01:03:55;;;;;;;;;;;5.30;99.90;;;;;;5021850;28;19909;-83
2023/01/31 01:06:21;;;;;;;;;;;5.40;99.90;;;;;;5038269;28;19986;-83
2023/01/31 01:08:46;;;;;;;;;;;5.40;99.90;;;;;;5056482;28;19916;-82
2023/01/31 01:11:19;;;;;;;;;;;5.40;99.90;;;;;;5038017;28;19913;-83
2023/01/31 01:13:45;;;;;;;;;;;5.40;99.90;;;;;;5038274;28;19931;-83
2023/01/31 01:16:13;;;;;;;;;;;5.40;99.90;;;;;;5056253;28;19916;-83
2023/01/31 01:18:39;;;;;;;;;;;5.50;99.90;;;;;;5056132;28;19917;-83
2023/01/31 01:21:12;;;;;;;;;;;5.50;99.90;;;;;;5037647;28;19915;-83
2023/01/31 01:23:38;;;;;;;;;;;5.50;99.90;;;;;;5038081;28;19908;-83
2023/01/31 01:26:04;;;;;;;;;;;5.50;99.90;;;;;;5038031;28;19909;-82
2023/01/31 01:28:32;;;;;;;;;;;5.60;99.90;;;;;;5038025;28;19909;-83
2023/01/31 01:30:58;;;;;;;;;;;5.70;99.90;;;;;;5036899;28;19909;-83
2023/01/31 01:33:24;;;;;;;;;;;5.70;99.90;;;;;;5037715;28;19954;-83
2023/01/31 01:35:49;;;;;;;;;;;5.70;99.90;;;;;;5037399;28;19913;-83
2023/01/31 01:38:15;;;;;;;;;;;5.70;99.90;;;;;;5037437;28;20373;-83
2023/01/31 01:40:40;;;;;;;;;;;5.70;99.90;;;;;;5037234;28;20007;-83
2023/01/31 01:43:08;;;;;;;;;;;5.70;99.90;;;;;;5037397;28;19954;-83
2023/01/31 01:45:34;;;;;;;;;;;5.70;99.90;;;;;;5037611;28;19920;-83
2023/01/31 01:48:02;;;;;;;;;;;5.70;99.90;;;;;;5037356;28;20271;-83
2023/01/31 01:50:36;;;;;;;;;;;5.80;99.90;;;;;;5054824;28;19959;-83
2023/01/31 01:53:01;;;;;;;;;;;5.70;99.90;;;;;;5037086;28;19916;-83
2023/01/31 01:55:35;;;;;;;;;;;5.70;99.90;;;;;;5037035;28;19917;-82
2023/01/31 01:58:05;;;;;;;;;;;5.70;99.90;;;;;;5037465;28;19908;-83
2023/01/31 02:00:32;;;;;;;;;;;5.70;99.90;;;;;;5036482;28;19962;-83
2023/01/31 02:02:58;;;;;;;;;;;5.70;99.90;;;;;;5036645;28;20366;-83
2023/01/31 02:05:28;;;;;;;;;;;5.70;99.90;;;;;;5054963;28;19966;-83
2023/01/31 02:07:55;;;;;;;;;;;5.70;99.90;;;;;;5054653;28;19915;-82
2023/01/31 02:10:23;;;;;;;;;;;5.70;99.90;;;;;;5036632;28;19909;-83
2023/01/31 02:12:49;;;;;;;;;;;5.80;99.90;;;;;;5036725;28;19962;-83
2023/01/31 02:15:14;;;;;;;;;;;5.70;99.90;;;;;;5036904;28;19908;-83
2023/01/31 02:17:40;;;;;;;;;;;5.70;99.90;;;;;;5037527;28;19912;-83
2023/01/31 02:20:25;;;;;;;;;;;5.60;99.90;;;;;;5054445;28;20370;-83
2023/01/31 02:22:50;;;;;;;;;;;5.60;99.90;;;;;;5036573;28;19909;-83
2023/01/31 02:25:22;;;;;;;;;;;5.60;99.90;;;;;;5036423;28;19962;-83
2023/01/31 02:28:06;;;;;;;;;;;5.60;99.90;;;;;;5055491;28;19909;-82
2023/01/31 02:30:41;;;;;;;;;;;5.50;99.90;;;;;;5054447;28;19912;-83
2023/01/31 02:33:28;;;;;;;;;;;5.40;99.90;;;;;;5036170;28;19916;-83
2023/01/31 02:36:08;;;;;;;;;;;5.40;99.90;;;;;;5036317;28;19909;-83
2023/01/31 02:38:48;;;;;;;;;;;5.40;99.90;;;;;;5054289;28;20350;-83
2023/01/31 02:41:23;;;;;;;;;;;5.40;99.90;;;;;;5034484;28;19909;-83
2023/01/31 02:46:53;;;;;;;;;;;5.40;99.90;;;;;;5053370;28;19915;-83
2023/01/31 02:49:40;;;;;;;;;;;5.40;99.90;;;;;;5021478;28;19916;-84
2023/01/31 02:52:15;;;;;;;;;;;5.40;99.90;;;;;;5035745;28;19916;-83
2023/01/31 02:57:26;;;;;;;;;;;5.50;99.90;;;;;;5053617;28;19955;-83
2023/01/31 02:59:52;;;;;;;;;;;5.50;99.90;;;;;;5035486;28;19913;-83
2023/01/31 03:02:18;;;;;;;;;;;5.50;99.90;;;;;;5034929;28;19962;-82
2023/01/31 03:04:43;;;;;;;;;;;5.40;99.90;;;;;;5035202;28;19951;-82
2023/01/31 03:07:35;;;;;;;;;;;5.30;99.90;;;;;;5035272;28;19908;-83
2023/01/31 03:10:08;;;;;;;;;;;5.30;99.90;;;;;;5031353;28;20019;-83
2023/01/31 03:12:52;;;;;;;;;;;5.20;99.90;;;;;;5035539;28;20259;-84
2023/01/31 03:15:18;;;;;;;;;;;5.10;99.90;;;;;;5035563;28;20385;-83
2023/01/31 03:17:46;;;;;;;;;;;5.00;99.90;;;;;;5036443;28;19912;-84
2023/01/31 03:20:21;;;;;;;;;;;4.90;99.90;;;;;;5037870;28;19974;-83
2023/01/31 03:22:57;;;;;;;;;;;4.90;99.90;;;;;;5040695;28;19912;-84
2023/01/31 03:25:25;;;;;;;;;;;4.80;99.90;;;;;;5049239;28;19940;-85
2023/01/31 03:27:58;;;;;;;;;;;4.80;99.90;;;;;;5058193;28;20062;-85
2023/01/31 03:30:26;;;;;;;;;;;4.80;99.90;;;;;;5040427;28;20436;-85
2023/01/31 03:32:54;;;;;;;;;;;4.70;99.90;;;;;;5039488;28;19916;-84
2023/01/31 03:35:23;;;;;;;;;;;4.60;99.90;;;;;;5039506;28;20290;-84
2023/01/31 03:37:56;;;;;;;;;;;4.50;99.90;;;;;;5038755;28;19916;-84
2023/01/31 03:40:26;;;;;;;;;;;4.50;99.90;;;;;;5039113;28;19995;-84
2023/01/31 03:43:01;;;;;;;;;;;4.50;99.90;;;;;;5038798;28;19923;-84
2023/01/31 03:45:33;;;;;;;;;;;4.40;99.90;;;;;;5038850;28;19913;-85
2023/01/31 03:48:02;;;;;;;;;;;4.30;99.90;;;;;;5039210;28;19913;-85
2023/01/31 03:50:27;;;;;;;;;;;4.30;99.90;;;;;;5056713;28;19909;-85
2023/01/31 03:53:04;;;;;;;;;;;4.40;99.90;;;;;;5038876;28;19919;-85
2023/01/31 03:55:32;;;;;;;;;;;4.30;99.90;;;;;;5060104;28;20043;-85
2023/01/31 03:57:58;;;;;;;;;;;4.40;99.90;;;;;;5042419;28;20422;-85
2023/01/31 04:00:24;;;;;;;;;;;4.30;99.90;;;;;;5059981;28;20365;-85
2023/01/31 04:02:54;;;;;;;;;;;4.30;99.90;;;;;;5059597;28;20305;-83
2023/01/31 04:05:21;;;;;;;;;;;4.20;99.90;;;;;;5041930;28;19917;-84
2023/01/31 04:07:47;;;;;;;;;;;4.30;99.90;;;;;;5041690;28;19913;-84
2023/01/31 04:10:17;;;;;;;;;;;4.30;99.90;;;;;;5059883;28;19908;-85
2023/01/31 04:12:42;;;;;;;;;;;4.20;99.90;;;;;;5041150;28;19909;-84
2023/01/31 04:15:08;;;;;;;;;;;4.30;99.90;;;;;;5059402;28;20023;-84
2023/01/31 04:17:34;;;;;;;;;;;4.30;99.90;;;;;;5041770;28;19995;-85
2023/01/31 04:19:59;;;;;;;;;;;4.30;99.90;;;;;;5041327;28;19908;-85
2023/01/31 04:22:25;;;;;;;;;;;4.30;99.90;;;;;;5040942;28;19909;-83
2023/01/31 04:24:50;;;;;;;;;;;4.30;99.90;;;;;;5040641;28;19912;-84
2023/01/31 04:27:16;;;;;;;;;;;4.30;99.90;;;;;;5058899;28;19909;-84
2023/01/31 04:29:41;;;;;;;;;;;4.30;99.90;;;;;;5040668;28;19913;-84
2023/01/31 04:32:07;;;;;;;;;;;4.20;99.90;;;;;;5058313;28;19958;-83
2023/01/31 04:34:32;;;;;;;;;;;4.20;99.90;;;;;;5040848;28;20290;-83
2023/01/31 04:36:58;;;;;;;;;;;4.20;99.90;;;;;;5040840;28;20351;-84
2023/01/31 04:39:23;;;;;;;;;;;4.20;99.90;;;;;;5040063;28;20000;-83
2023/01/31 04:41:49;;;;;;;;;;;4.20;99.90;;;;;;5057617;28;19909;-83
2023/01/31 04:44:15;;;;;;;;;;;4.30;99.90;;;;;;5040101;28;19920;-84
2023/01/31 04:46:41;;;;;;;;;;;4.20;99.90;;;;;;5040057;28;19936;-84
2023/01/31 04:49:06;;;;;;;;;;;4.20;99.90;;;;;;5039709;28;19909;-84
2023/01/31 04:51:32;;;;;;;;;;;4.30;99.90;;;;;;5039252;28;19995;-84
2023/01/31 04:54:00;;;;;;;;;;;4.30;99.90;;;;;;5039362;28;19999;-83
2023/01/31 04:56:26;;;;;;;;;;;4.40;99.90;;;;;;5057758;28;20322;-84
2023/01/31 04:58:51;;;;;;;;;;;4.40;99.90;;;;;;5057141;28;19967;-84
2023/01/31 05:01:17;;;;;;;;;;;4.40;99.90;;;;;;5038931;28;19908;-84
2023/01/31 05:03:42;;;;;;;;;;;4.40;99.90;;;;;;5056712;28;20310;-84
2023/01/31 05:06:08;;;;;;;;;;;4.40;99.90;;;;;;5038011;28;19913;-83
2023/01/31 05:08:33;;;;;;;;;;;4.40;99.90;;;;;;5038923;28;19952;-83
2023/01/31 05:11:00;;;;;;;;;;;4.40;99.90;;;;;;5038436;28;19909;-84
2023/01/31 05:13:26;;;;;;;;;;;4.40;99.90;;;;;;5038984;28;20003;-84
2023/01/31 05:15:52;;;;;;;;;;;4.50;99.90;;;;;;5038745;28;20397;-84
2023/01/31 05:18:17;;;;;;;;;;;4.50;99.90;;;;;;5056847;28;19908;-85
2023/01/31 05:20:43;;;;;;;;;;;4.50;99.90;;;;;;5038629;28;19963;-84
2023/01/31 05:23:09;;;;;;;;;;;4.50;99.90;;;;;;5038638;28;19912;-83
2023/01/31 05:25:35;;;;;;;;;;;4.70;99.90;;;;;;5038223;28;19912;-83
2023/01/31 05:28:01;;;;;;;;;;;4.70;99.90;;;;;;5056500;28;20527;-85
2023/01/31 05:30:27;;;;;;;;;;;4.70;99.90;;;;;;5038196;28;19908;-83
2023/01/31 05:32:52;;;;;;;;;;;4.70;99.90;;;;;;5038132;28;20005;-84
2023/01/31 05:35:18;;;;;;;;;;;4.80;99.90;;;;;;5038426;28;20282;-84
2023/01/31 05:37:44;;;;;;;;;;;4.90;99.90;;;;;;5056290;28;20008;-83
2023/01/31 05:40:11;;;;;;;;;;;5.00;99.90;;;;;;5056201;28;19958;-84
2023/01/31 05:42:36;;;;;;;;;;;5.00;99.90;;;;;;5037807;28;19909;-83
2023/01/31 05:45:02;;;;;;;;;;;5.10;99.90;;;;;;5055938;28;19920;-84
2023/01/31 05:47:28;;;;;;;;;;;5.20;99.90;;;;;;5055458;28;20011;-85
2023/01/31 05:49:53;;;;;;;;;;;5.20;99.90;;;;;;5037580;28;20520;-84
2023/01/31 05:52:19;;;;;;;;;;;5.20;99.90;;;;;;5037164;28;20281;-83
2023/01/31 05:54:44;;;;;;;;;;;5.20;99.90;;;;;;5055920;28;19954;-82
2023/01/31 05:57:10;;;;;;;;;;;5.30;99.90;;;;;;5055246;28;19948;-83
2023/01/31 05:59:35;;;;;;;;;;;5.20;99.90;;;;;;5037290;28;19909;-84
2023/01/31 06:02:01;;;;;;;;;;;5.30;99.90;;;;;;5055103;28;19912;-84
2023/01/31 06:04:26;;;;;;;;;;;5.20;99.90;;;;;;5055061;28;19920;-83
2023/01/31 06:06:52;;;;;;;;;;;5.10;99.90;;;;;;5055295;28;19916;-83
2023/01/31 06:09:17;;;;;;;;;;;5.10;99.90;;;;;;5054969;28;20015;-83
2023/01/31 06:11:43;;;;;;;;;;;5.10;99.90;;;;;;5055016;28;20387;-83
2023/01/31 06:14:09;;;;;;;;;;;5.10;99.90;;;;;;5055888;28;19913;-83
2023/01/31 06:16:34;;;;;;;;;;;5.00;99.90;;;;;;5047956;22;19988;-79
2023/01/31 06:19:00;;;;;;;;;;;5.00;99.90;;;;;;5027894;28;20326;-79
2023/01/31 06:21:26;;;;;;;;;;;5.10;99.90;;;;;;5035041;28;19909;-79
2023/01/31 06:23:52;;;;;;;;;;;5.20;99.90;;;;;;4999515;28;19914;-79
2023/01/31 06:26:17;;;;;;;;;;;5.20;99.90;;;;;;5016611;28;19991;-79
2023/01/31 06:28:43;;;;;;;;;;;5.30;99.90;;;;;;5016430;28;19910;-78
2023/01/31 06:31:09;;;;;;;;;;;5.20;99.90;;;;;;4998108;28;19910;-78
2023/01/31 06:33:35;;;;;;;;;;;5.20;99.90;;;;;;4998183;28;19909;-78
2023/01/31 06:36:00;;;;;;;;;;;5.30;99.90;;;;;;4999471;28;20302;-78
2023/01/31 06:38:26;;;;;;;;;;;5.30;99.90;;;;;;5016649;28;19909;-78
2023/01/31 06:40:52;;;;;;;;;;;5.30;99.90;;;;;;4998450;28;19914;-78
2023/01/31 06:43:17;;;;;;;;;;;5.30;99.90;;;;;;5016158;28;19913;-78
2023/01/31 06:45:43;;;;;;;;;;;5.40;99.90;;;;;;4998148;28;20007;-78
2023/01/31 06:48:09;;;;;;;;;;;5.40;99.90;;;;;;4998730;28;19959;-79
2023/01/31 06:50:34;;;;;;;;;;;5.40;99.90;;;;;;5015408;28;19914;-79
2023/01/31 06:53:00;;;;;;;;;;;5.30;99.90;;;;;;4998088;28;20012;-79
2023/01/31 06:55:25;;;;;;;;;;;5.30;99.90;;;;;;4998027;28;19956;-79
2023/01/31 06:57:51;;;;;;;;;;;5.30;99.90;;;;;;5016412;28;20386;-78
2023/01/31 07:00:17;;;;;;;;;;;5.30;99.90;;;;;;4997836;28;19944;-79
2023/01/31 07:02:43;;;;;;;;;;;5.40;99.90;;;;;;4998072;28;20004;-80
2023/01/31 07:05:09;;;;;;;;;;;5.40;99.90;;;;;;4998034;28;19953;-79
2023/01/31 07:07:34;;;;;;;;;;;5.50;99.90;;;;;;5014845;28;19917;-79
2023/01/31 07:09:59;;;;;;;;;;;5.50;99.90;;;;;;5015032;28;19909;-78
2023/01/31 07:12:25;;;;;;;;;;;5.40;99.90;;;;;;4997271;28;19909;-80
2023/01/31 07:14:51;;;;;;;;;;;5.40;99.90;;;;;;5015557;28;19910;-79
2023/01/31 07:17:16;;;;;;;;;;;5.50;99.90;;;;;;5014990;28;20322;-79
2023/01/31 07:19:42;;;;;;;;;;;5.50;99.90;;;;;;5016129;28;19918;-78
2023/01/31 07:22:07;;;;;;;;;;;5.50;99.90;;;;;;5015828;28;19909;-79
2023/01/31 07:24:33;;;;;;;;;;;5.60;99.90;;;;;;4998190;28;20369;-79
2023/01/31 07:27:00;;;;;;;;;;;5.60;99.90;;;;;;4997971;28;19909;-79
2023/01/31 07:29:25;;;;;;;;;;;5.70;99.90;;;;;;5015719;28;19941;-78
2023/01/31 07:31:51;;;;;;;;;;;5.70;99.90;;;;;;5016402;28;19909;-79
2023/01/31 07:34:17;;;;;;;;;;;5.60;99.90;;;;;;4999679;28;19934;-79
2023/01/31 07:36:43;;;;;;;;;;;5.70;99.90;;;;;;4999670;28;19910;-79
2023/01/31 07:39:08;;;;;;;;;;;5.80;99.90;;;;;;5017494;28;19916;-79
2023/01/31 07:41:35;;;;;;;;;;;5.90;99.90;;;;;;5017025;28;19921;-79
2023/01/31 07:44:00;;;;;;;;;;;5.90;99.90;;;;;;4999888;28;20387;-79
2023/01/31 07:46:25;;;;;;;;;;;5.80;99.90;;;;;;4999318;28;19977;-79
2023/01/31 07:48:51;;;;;;;;;;;5.80;99.90;;;;;;4999214;28;19910;-79
2023/01/31 07:51:17;;;;;;;;;;;5.90;99.90;;;;;;5016883;28;19910;-79
2023/01/31 07:53:43;;;;;;;;;;;6.00;99.90;;;;;;4999084;28;19959;-80
2023/01/31 07:56:09;;;;;;;;;;;5.90;99.90;;;;;;4999384;28;19910;-79
2023/01/31 07:58:35;;;;;;;;;;;5.90;99.90;;;;;;5016737;28;19910;-79
2023/01/31 08:03:45;;;;;;;;;;;6.00;99.90;;;;;;5017220;28;19988;-78
2023/01/31 08:06:11;;;;;;;;;;;6.10;99.90;;;;;;5016610;28;19953;-78
2023/01/31 08:08:37;;;;;;;;;;;6.20;99.90;;;;;;4999515;28;20367;-79
2023/01/31 08:11:06;;;;;;;;;;;6.30;99.90;;;;;;5016632;28;19919;-79
2023/01/31 08:13:32;;;;;;;;;;;6.30;99.90;;;;;;4998704;28;19909;-79
2023/01/31 08:15:58;;;;;;;;;;;6.30;99.90;;;;;;4998290;28;20440;-79
2023/01/31 08:18:23;;;;;;;;;;;6.40;99.90;;;;;;5015943;28;19910;-79
2023/01/31 08:20:49;;;;;;;;;;;6.50;99.90;;;;;;5015656;28;19909;-79
2023/01/31 08:23:14;;;;;;;;;;;6.50;99.90;;;;;;5015317;28;19917;-79
2023/01/31 08:25:40;;;;;;;;;;;6.50;99.90;;;;;;5015799;28;20286;-77
2023/01/31 08:28:05;;;;;;;;;;;6.50;99.90;;;;;;4998476;28;19909;-79
2023/01/31 08:30:31;;;;;;;;;;;6.50;99.90;;;;;;5015795;28;19910;-79
2023/01/31 08:32:56;;;;;;;;;;;6.50;99.90;;;;;;4998021;28;19909;-79
2023/01/31 08:35:23;;;;;;;;;;;6.60;99.90;;;;;;4998014;28;19953;-78
2023/01/31 08:37:49;;;;;;;;;;;6.70;99.90;;;;;;5010668;28;19910;-78
2023/01/31 08:40:14;;;;;;;;;;;6.70;99.90;;;;;;5012650;28;20017;-78
2023/01/31 08:42:40;;;;;;;;;;;6.70;99.90;;;;;;4999599;28;19917;-78
2023/01/31 08:45:06;;;;;;;;;;;6.70;99.90;;;;;;4999641;28;20531;-79
2023/01/31 08:47:32;;;;;;;;;;;6.70;99.90;;;;;;5000530;28;19917;-79
2023/01/31 08:49:57;;;;;;;;;;;6.70;99.90;;;;;;4999689;28;19981;-78
2023/01/31 08:52:22;;;;;;;;;;;6.70;99.90;;;;;;4998834;28;20649;-78
2023/01/31 08:54:48;;;;;;;;;;;6.80;99.90;;;;;;4999895;28;19910;-79
2023/01/31 08:57:13;;;;;;;;;;;6.80;99.90;;;;;;5000217;28;19916;-79
2023/01/31 08:59:39;;;;;;;;;;;6.80;99.90;;;;;;5005180;28;19909;-79
2023/01/31 09:02:04;;;;;;;;;;;6.90;99.90;;;;;;5002916;28;19916;-78
2023/01/31 09:04:30;;;;;;;;;;;6.80;99.90;;;;;;5016900;28;20549;-78
2023/01/31 09:06:55;;;;;;;;;;;6.90;99.90;;;;;;5016547;28;20275;-78
2023/01/31 09:09:20;;;;;;;;;;;6.90;99.90;;;;;;5017417;28;19947;-78
2023/01/31 09:11:46;;;;;;;;;;;6.90;99.90;;;;;;4998868;28;19967;-78
2023/01/31 09:14:11;;;;;;;;;;;6.80;99.90;;;;;;5017578;28;19963;-77
2023/01/31 09:16:37;;;;;;;;;;;6.90;99.90;;;;;;5016971;28;19921;-77
2023/01/31 09:19:02;;;;;;;;;;;6.80;99.90;;;;;;5016530;28;20012;-77
2023/01/31 09:21:28;;;;;;;;;;;6.70;99.90;;;;;;5016634;28;19917;-77
2023/01/31 09:23:55;;;;;;;;;;;6.60;99.90;;;;;;5016846;28;20054;-78
2023/01/31 09:26:20;;;;;;;;;;;6.70;99.90;;;;;;5016715;28;19923;-77
2023/01/31 09:28:46;;;;;;;;;;;6.90;99.90;;;;;;5016810;28;19917;-78
2023/01/31 09:31:15;;;;;;;;;;;6.90;99.90;;;;;;4998346;28;19940;-78
2023/01/31 09:33:41;;;;;;;;;;;6.90;99.90;;;;;;5016330;28;20004;-78
2023/01/31 09:36:10;;;;;;;;;;;6.90;99.90;;;;;;4998632;28;19957;-77
2023/01/31 09:38:36;;;;;;;;;;;6.80;99.90;;;;;;5016666;28;19910;-77
2023/01/31 09:41:03;;;;;;;;;;;6.80;99.90;;;;;;5015994;28;19913;-77
2023/01/31 09:43:31;;;;;;;;;;;6.80;99.90;;;;;;4998967;28;19960;-78
2023/01/31 09:45:58;;;;;;;;;;;6.70;99.90;;;;;;5016167;28;19920;-77
2023/01/31 09:48:27;;;;;;;;;;;6.70;99.90;;;;;;5016448;28;19988;-78
2023/01/31 09:50:54;;;;;;;;;;;6.70;99.90;;;;;;5015929;28;20325;-78
2023/01/31 09:53:22;;;;;;;;;;;6.70;99.90;;;;;;4999074;28;20433;-78
2023/01/31 09:55:54;;;;;;;;;;;6.60;99.90;;;;;;5016296;28;19917;-77
2023/01/31 09:58:28;;;;;;;;;;;6.70;99.90;;;;;;5016505;28;19932;-78
2023/01/31 10:01:04;;;;;;;;;;;6.70;99.90;;;;;;5016107;28;19909;-77
2023/01/31 10:03:44;;;;;;;;;;;6.70;99.90;;;;;;5015973;28;20386;-78
2023/01/31 10:06:16;;;;;;;;;;;6.70;99.90;;;;;;4998188;28;19914;-77
2023/01/31 10:08:57;;;;;;;;;;;6.90;99.90;;;;;;4998766;28;19933;-77
2023/01/31 10:11:29;;;;;;;;;;;7.10;99.90;;;;;;5016094;28;19910;-77
2023/01/31 10:13:57;;;;;;;;;;;7.20;99.90;;;;;;4998815;28;20015;-77
2023/01/31 10:16:37;;;;;;;;;;;7.20;99.90;;;;;;5016210;28;19918;-78
2023/01/31 10:19:05;;;;;;;;;;;7.30;99.90;;;;;;4997665;28;19910;-78
2023/01/31 10:21:42;;;;;;;;;;;7.30;99.90;;;;;;5015652;28;19916;-78
2023/01/31 10:24:34;;;;;;;;;;;7.30;99.90;;;;;;5016240;28;19909;-78
2023/01/31 10:27:03;;;;;;;;;;;7.50;99.90;;;;;;4977685;28;20290;-77
2023/01/31 10:29:37;;;;;;;;;;;7.70;99.90;;;;;;5015228;28;19917;-78
2023/01/31 10:32:21;;;;;;;;;;;7.70;99.90;;;;;;4997516;28;19957;-78
2023/01/31 10:34:49;;;;;;;;;;;7.70;99.90;;;;;;5015782;28;19909;-77
2023/01/31 10:37:15;;;;;;;;;;;7.70;99.90;;;;;;4997495;28;19916;-77
2023/01/31 10:39:43;;;;;;;;;;;7.80;99.90;;;;;;4997560;28;19909;-78
2023/01/31 10:42:09;;;;;;;;;;;7.80;99.90;;;;;;5014932;28;19913;-78
2023/01/31 10:44:54;;;;;;;;;;;7.90;99.90;;;;;;4996868;28;20421;-78
2023/01/31 10:47:25;;;;;;;;;;;7.90;99.90;;;;;;5014630;28;19909;-78
2023/01/31 10:49:51;;;;;;;;;;;7.90;99.90;;;;;;4998327;28;19910;-78
2023/01/31 10:52:31;;;;;;;;;;;8.00;99.90;;;;;;5015284;28;19910;-77
2023/01/31 10:54:57;;;;;;;;;;;8.10;99.90;;;;;;4996290;28;19909;-77
2023/01/31 10:57:22;;;;;;;;;;;8.00;99.90;;;;;;5013732;28;19917;-76
2023/01/31 10:59:49;;;;;;;;;;;8.00;99.90;;;;;;5012029;28;19928;-77
2023/01/31 11:02:19;;;;;;;;;;;8.00;99.90;;;;;;5012556;28;19918;-77
2023/01/31 11:04:44;;;;;;;;;;;7.90;99.90;;;;;;4993072;28;19913;-77
2023/01/31 11:07:10;;;;;;;;;;;8.00;99.90;;;;;;4998350;28;19913;-77
2023/01/31 11:09:37;;;;;;;;;;;8.10;99.90;;;;;;5001643;28;19910;-78
2023/01/31 11:12:04;;;;;;;;;;;8.30;99.90;;;;;;5003251;28;20364;-78
2023/01/31 11:14:30;;;;;;;;;;;8.40;99.90;;;;;;5003197;28;19910;-77
2023/01/31 11:17:19;;;;;;;;;;;8.50;99.90;;;;;;4999755;28;19918;-78
2023/01/31 11:19:49;;;;;;;;;;;8.50;99.90;;;;;;4987155;28;19914;-79
2023/01/31 11:22:30;;;;;;;;;;;8.40;99.90;;;;;;4994477;28;19910;-78
2023/01/31 11:24:57;;;;;;;;;;;8.30;99.90;;;;;;4993904;28;19921;-78
2023/01/31 11:27:27;;;;;;;;;;;8.40;99.90;;;;;;4993060;28;19956;-78
2023/01/31 11:29:56;;;;;;;;;;;8.40;99.90;;;;;;4995421;28;19910;-78
2023/01/31 11:32:27;;;;;;;;;;;8.40;99.90;;;;;;4994688;28;19920;-78
2023/01/31 11:34:57;;;;;;;;;;;8.50;99.90;;;;;;4993162;28;19918;-78
2023/01/31 11:37:22;;;;;;;;;;;8.50;99.90;;;;;;4992946;28;20000;-78
2023/01/31 11:39:56;;;;;;;;;;;8.60;99.90;;;;;;4993100;28;19980;-78
2023/01/31 11:42:21;;;;;;;;;;;8.70;99.90;;;;;;4993863;28;20265;-79
2023/01/31 11:44:52;;;;;;;;;;;8.70;99.90;;;;;;4994926;28;20012;-79
2023/01/31 11:47:27;;;;;;;;;;;8.80;99.90;;;;;;4994087;28;20009;-79
2023/01/31 11:49:52;;;;;;;;;;;8.70;99.90;;;;;;4995893;28;19917;-79
2023/01/31 11:52:26;;;;;;;;;;;8.80;99.90;;;;;;4995221;28;19909;-78
2023/01/31 11:54:56;;;;;;;;;;;8.80;99.90;;;;;;4993891;28;20017;-78
2023/01/31 11:57:23;;;;;;;;;;;8.70;99.90;;;;;;4994529;28;19980;-78
2023/01/31 11:59:50;;;;;;;;;;;8.80;99.90;;;;;;4993887;28;19956;-78
2023/01/31 12:02:23;;;;;;;;;;;8.70;99.90;;;;;;4993343;28;19968;-79
2023/01/31 12:04:49;;;;;;;;;;;8.60;99.90;;;;;;4995110;28;19921;-78
2023/01/31 12:07:26;;;;;;;;;;;8.50;99.90;;;;;;4994817;28;20334;-78
2023/01/31 12:09:51;;;;;;;;;;;8.30;99.90;;;;;;4995309;28;19916;-79
2023/01/31 12:12:32;;;;;;;;;;;8.30;99.90;;;;;;4994338;28;20008;-80
2023/01/31 12:14:59;;;;;;;;;;;8.30;99.90;;;;;;4997432;28;19925;-79
2023/01/31 12:17:27;;;;;;;;;;;8.30;99.90;;;;;;5001000;28;20298;-81
2023/01/31 12:20:11;;;;;;;;;;;8.40;99.90;;;;;;5001777;28;19941;-80
2023/01/31 12:23:01;;;;;;;;;;;8.50;99.90;;;;;;4999274;28;19956;-80
2023/01/31 12:25:45;;;;;;;;;;;8.50;99.90;;;;;;4999271;28;19914;-80
2023/01/31 12:28:30;;;;;;;;;;;8.50;99.90;;;;;;5000761;28;20364;-80
2023/01/31 12:31:13;;;;;;;;;;;8.50;99.90;;;;;;5000557;28;19910;-80
2023/01/31 12:33:54;;;;;;;;;;;8.40;99.90;;;;;;4999688;28;19910;-79
2023/01/31 12:36:19;;;;;;;;;;;8.40;99.90;;;;;;4999882;28;19917;-81
2023/01/31 12:38:51;;;;;;;;;;;8.40;99.90;;;;;;5000426;28;19910;-81
2023/01/31 12:41:22;;;;;;;;;;;8.50;99.90;;;;;;4999198;28;19916;-81
2023/01/31 12:43:51;;;;;;;;;;;8.50;99.90;;;;;;4998648;28;19910;-79
2023/01/31 12:46:24;;;;;;;;;;;8.50;99.90;;;;;;5000150;28;20375;-80
2023/01/31 12:49:07;;;;;;;;;;;8.60;99.90;;;;;;5000365;28;19910;-80
2023/01/31 12:51:42;;;;;;;;;;;8.50;99.90;;;;;;4999740;28;19910;-80
2023/01/31 12:54:29;;;;;;;;;;;8.60;99.90;;;;;;4999286;28;19910;-80
2023/01/31 12:57:00;;;;;;;;;;;8.50;99.90;;;;;;4998159;28;19932;-80
2023/01/31 12:59:37;;;;;;;;;;;8.50;99.90;;;;;;5000219;28;19933;-80
2023/01/31 13:02:06;;;;;;;;;;;8.60;99.90;;;;;;5010395;28;20299;-81
2023/01/31 13:04:35;;;;;;;;;;;8.40;99.90;;;;;;5023125;28;20371;-80
2023/01/31 13:07:06;;;;;;;;;;;8.40;99.90;;;;;;5018944;28;20004;-82
2023/01/31 13:09:33;;;;;;;;;;;8.20;99.90;;;;;;5011197;28;19993;-83
2023/01/31 13:12:10;;;;;;;;;;;8.30;99.90;;;;;;4996591;28;19914;-84
2023/01/31 13:14:43;;;;;;;;;;;8.40;99.90;;;;;;5002027;28;20283;-83
2023/01/31 13:17:13;;;;;;;;;;;8.20;99.90;;;;;;4997843;28;19917;-84
2023/01/31 13:19:42;;;;;;;;;;;8.20;99.90;;;;;;4990332;28;20004;-84
2023/01/31 13:22:16;;;;;;;;;;;8.10;99.90;;;;;;5003200;28;19910;-84
2023/01/31 13:24:45;;;;;;;;;;;8.20;99.90;;;;;;5000404;28;19925;-84
2023/01/31 13:27:18;;;;;;;;;;;8.20;99.90;;;;;;5062928;22;20282;-84
2023/01/31 13:30:23;;;;;;;;;;;8.20;99.90;;;;;;5077474;28;19923;-84
2023/01/31 13:32:51;;;;;;;;;;;8.20;99.90;;;;;;5039094;28;19999;-83
2023/01/31 13:35:22;;;;;;;;;;;8.20;99.90;;;;;;5055565;28;19909;-84
2023/01/31 13:37:50;;;;;;;;;;;8.10;99.90;;;;;;5055689;28;19913;-84
2023/01/31 13:40:29;;;;;;;;;;;8.20;99.90;;;;;;5057501;28;19909;-84
2023/01/31 13:43:14;;;;;;;;;;;8.10;99.90;;;;;;5059153;28;19912;-84
2023/01/31 13:45:54;;;;;;;;;;;8.20;99.90;;;;;;5052483;28;19912;-82
2023/01/31 13:48:19;;;;;;;;;;;8.20;99.90;;;;;;5080636;28;20105;-84
2023/01/31 13:50:50;;;;;;;;;;;8.10;99.90;;;;;;5064182;28;19958;-84
2023/01/31 13:53:19;;;;;;;;;;;8.20;99.90;;;;;;5080550;28;19909;-83
2023/01/31 13:55:46;;;;;;;;;;;8.10;99.90;;;;;;5079638;28;19915;-84
2023/01/31 13:58:17;;;;;;;;;;;8.00;99.90;;;;;;5079572;28;19962;-82
2023/01/31 14:00:45;;;;;;;;;;;7.90;99.90;;;;;;5076828;28;19944;-82
2023/01/31 14:03:13;;;;;;;;;;;7.90;99.90;;;;;;5075774;28;20003;-83
2023/01/31 14:05:41;;;;;;;;;;;7.90;99.90;;;;;;5064485;28;19912;-82
2023/01/31 14:08:25;;;;;;;;;;;7.80;99.90;;;;;;5082687;28;20053;-82
2023/01/31 14:10:50;;;;;;;;;;;7.80;99.90;;;;;;5061981;28;19940;-83
2023/01/31 14:13:24;;;;;;;;;;;7.70;99.90;;;;;;5079482;28;20002;-84
2023/01/31 14:15:50;;;;;;;;;;;7.70;99.90;;;;;;5079029;28;19908;-82
2023/01/31 14:18:35;;;;;;;;;;;7.70;99.90;;;;;;5058218;28;19916;-83
2023/01/31 14:21:27;;;;;;;;;;;7.60;99.90;;;;;;5056414;28;19916;-83
2023/01/31 14:23:52;;;;;;;;;;;7.60;99.90;;;;;;5040923;28;19961;-82
2023/01/31 14:26:37;;;;;;;;;;;7.60;99.90;;;;;;5056355;28;19916;-82
2023/01/31 14:29:09;;;;;;;;;;;7.60;99.90;;;;;;5056566;28;19984;-83
2023/01/31 14:31:34;;;;;;;;;;;7.50;99.90;;;;;;5078482;28;19908;-84
2023/01/31 14:34:01;;;;;;;;;;;7.50;99.90;;;;;;5078579;28;19915;-84
2023/01/31 14:36:47;;;;;;;;;;;7.50;99.90;;;;;;5075712;28;19908;-83
2023/01/31 14:39:21;;;;;;;;;;;7.50;99.90;;;;;;5056692;28;20011;-83
2023/01/31 14:42:05;;;;;;;;;;;7.50;99.90;;;;;;5057046;28;19974;-85
2023/01/31 14:45:03;;;;;;;;;;;7.50;99.90;;;;;;5055329;28;19912;-82
2023/01/31 14:47:41;;;;;;;;;;;7.50;99.90;;;;;;5032672;28;19915;-83
2023/01/31 14:50:16;;;;;;;;;;;7.50;99.90;;;;;;5056309;28;19908;-85